Time;durP1;ratioP1;P1;durP2;ratioP2;P2;SDS_P1;SDS_P2;PMS_P1;PMS_P2;Temp;Humidity;BMP_temperature;BMP_pressure;BME280_temperature;BME280_humidity;BME280_pressure;Samples;Min_cycle;Max_cycle;Signal;HPM_P1;HPM_P2
2023/04/14 00:00:28;;;;;;;7.85;1.63;;;6.00;99.90;;;;;;5076720;28;20053;-86
2023/04/14 00:02:54;;;;;;;9.07;2.15;;;5.90;99.90;;;;;;5092922;28;20035;-86
2023/04/14 00:05:20;;;;;;;8.68;2.22;;;5.80;99.90;;;;;;5093273;28;20126;-86
2023/04/14 00:07:45;;;;;;;7.22;1.42;;;5.80;99.90;;;;;;5075964;28;20042;-86
2023/04/14 00:10:11;;;;;;;8.60;1.80;;;5.70;99.90;;;;;;5057957;28;20440;-86
2023/04/14 00:12:37;;;;;;;6.82;1.90;;;6.40;99.90;;;;;;5058687;28;20089;-86
2023/04/14 00:15:03;;;;;;;12.25;2.28;;;5.60;99.90;;;;;;5075924;28;20032;-86
2023/04/14 00:17:29;;;;;;;6.13;1.83;;;5.60;99.90;;;;;;5076097;28;20077;-86
2023/04/14 00:19:55;;;;;;;5.40;2.00;;;5.50;99.90;;;;;;5092904;28;20035;-86
2023/04/14 00:22:21;;;;;;;6.32;1.70;;;5.80;99.90;;;;;;5092843;28;20127;-86
2023/04/14 00:24:49;;;;;;;7.25;1.85;;;5.50;99.90;;;;;;5092976;28;20039;-86
2023/04/14 00:27:15;;;;;;;4.93;1.85;;;5.50;99.90;;;;;;5059341;28;20068;-86
2023/04/14 00:29:41;;;;;;;9.98;2.08;;;5.60;99.90;;;;;;5075990;28;20070;-86
2023/04/14 00:32:07;;;;;;;10.02;1.90;;;5.60;99.90;;;;;;5092748;28;20031;-86
2023/04/14 00:34:35;;;;;;;7.82;2.20;;;5.40;99.90;;;;;;5092831;28;20035;-86
2023/04/14 00:37:01;;;;;;;7.55;2.20;;;5.50;99.90;;;;;;5092309;28;20032;-86
2023/04/14 00:39:27;;;;;;;8.25;2.08;;;5.30;99.90;;;;;;5057385;28;20077;-86
2023/04/14 00:41:52;;;;;;;7.97;2.00;;;5.60;99.90;;;;;;5058970;28;20069;-86
2023/04/14 00:44:18;;;;;;;3.57;1.80;;;5.20;99.90;;;;;;5076208;28;20278;-86
2023/04/14 00:46:44;;;;;;;7.32;2.00;;;5.20;99.90;;;;;;5058293;28;20809;-86
2023/04/14 00:49:10;;;;;;;5.72;1.98;;;5.20;99.90;;;;;;5076033;28;20031;-86
2023/04/14 00:51:36;;;;;;;7.60;3.08;;;5.80;99.90;;;;;;5076230;28;20518;-86
2023/04/14 00:54:04;;;;;;;21.90;2.55;;;5.20;99.90;;;;;;5077167;28;20036;-85
2023/04/14 00:56:30;;;;;;;4.75;1.83;;;5.10;99.90;;;;;;5077392;28;20093;-86
2023/04/14 00:59:00;;;;;;;5.03;2.22;;;5.90;99.90;;;;;;5097130;28;20134;-86
2023/04/14 01:01:27;;;;;;;7.88;1.95;;;5.10;99.90;;;;;;5098108;28;20419;-86
2023/04/14 01:03:53;;;;;;;5.40;2.10;;;5.00;99.90;;;;;;5097242;28;20135;-86
2023/04/14 01:06:19;;;;;;;7.45;2.20;;;4.90;99.90;;;;;;5063166;28;20116;-86
2023/04/14 01:08:46;;;;;;;8.32;2.22;;;4.90;99.90;;;;;;5064309;28;20039;-86
2023/04/14 01:11:21;;;;;;;;;;;4.80;99.90;;;;;;5095658;28;20040;-86
2023/04/14 01:13:58;;;;;;;8.05;2.38;;;4.80;99.90;;;;;;5097288;28;19920;-86
2023/04/14 01:16:48;;;;;;;4.43;1.67;;;4.80;99.90;;;;;;5097868;28;20496;-86
2023/04/14 01:19:32;;;;;;;8.73;2.33;;;4.80;99.90;;;;;;5096893;28;20388;-86
2023/04/14 01:22:04;;;;;;;4.60;1.92;;;4.90;99.90;;;;;;5097104;28;20387;-86
2023/04/14 01:24:42;;;;;;;4.30;1.85;;;4.80;99.90;;;;;;5095607;28;20088;-86
2023/04/14 01:27:33;;;;;;;7.28;2.00;;;5.30;99.90;;;;;;5097121;28;20141;-86
2023/04/14 01:30:08;;;;;;;5.32;2.25;;;4.70;99.90;;;;;;5095575;28;20038;-86
2023/04/14 01:32:38;;;;;;;6.97;1.67;;;5.20;99.90;;;;;;5096806;28;20467;-86
2023/04/14 01:35:09;;;;;;;3.67;1.63;;;4.80;99.90;;;;;;5096689;28;20040;-86
2023/04/14 01:37:42;;;;;;;5.88;1.95;;;5.00;99.90;;;;;;5114038;28;20051;-85
2023/04/14 01:40:12;;;;;;;15.20;2.10;;;4.70;99.90;;;;;;5096619;28;20032;-86
2023/04/14 01:42:45;;;;;;;8.00;2.10;;;4.70;99.90;;;;;;5096612;28;20031;-86
2023/04/14 01:45:16;;;;;;;4.47;1.70;;;5.20;99.90;;;;;;5113639;28;20031;-86
2023/04/14 01:47:44;;;;;;;6.20;1.73;;;4.70;99.90;;;;;;5096954;28;20514;-86
2023/04/14 01:50:11;;;;;;;6.22;2.08;;;5.30;99.90;;;;;;5079721;28;20089;-86
2023/04/14 01:52:38;;;;;;;7.38;1.88;;;4.80;99.90;;;;;;5097156;28;20400;-86
2023/04/14 01:55:06;;;;;;;7.55;1.70;;;4.70;99.90;;;;;;5061641;28;20074;-86
2023/04/14 01:57:39;;;;;;;4.60;1.60;;;4.80;99.90;;;;;;5112598;28;20114;-86
2023/04/14 02:00:08;;;;;;;5.80;1.58;;;4.80;99.90;;;;;;5093585;28;20040;-85
2023/04/14 02:02:36;;;;;;;5.43;2.00;;;4.70;99.90;;;;;;5096146;28;20063;-86
2023/04/14 02:05:04;;;;;;;7.55;1.67;;;5.70;99.90;;;;;;5078601;28;20035;-86
2023/04/14 02:07:31;;;;;;;8.27;1.80;;;4.80;99.90;;;;;;5095204;28;20047;-86
2023/04/14 02:09:59;;;;;;;6.78;1.75;;;5.40;99.90;;;;;;5108834;28;20487;-86
2023/04/14 02:12:27;;;;;;;5.72;1.60;;;4.80;99.90;;;;;;5095142;28;20092;-86
2023/04/14 02:14:54;;;;;;;7.40;1.70;;;5.90;99.90;;;;;;5077984;28;20031;-86
2023/04/14 02:17:20;;;;;;;3.67;1.33;;;4.80;99.90;;;;;;5094926;28;20028;-86
2023/04/14 02:19:48;;;;;;;3.58;1.50;;;4.90;99.90;;;;;;5061851;28;20075;-86
2023/04/14 02:22:14;;;;;;;4.30;1.55;;;4.90;99.90;;;;;;5094534;28;20138;-86
2023/04/14 02:24:39;;;;;;;7.68;1.55;;;4.90;99.90;;;;;;5076734;28;20115;-86
2023/04/14 02:27:15;;;;;;;5.32;1.48;;;4.90;99.90;;;;;;5061063;28;20036;-86
2023/04/14 02:29:44;;;;;;;6.00;1.52;;;5.00;99.90;;;;;;5094284;28;20039;-86
2023/04/14 02:32:18;;;;;;;6.97;1.55;;;5.00;99.90;;;;;;5077970;28;20040;-86
2023/04/14 02:34:51;;;;;;;4.07;1.77;;;5.00;99.90;;;;;;5112243;28;20506;-86
2023/04/14 02:37:23;;;;;;;7.90;1.42;;;5.00;99.90;;;;;;5112411;28;20932;-85
2023/04/14 02:39:55;;;;;;;3.55;1.50;;;5.00;99.90;;;;;;5111751;28;20031;-86
2023/04/14 02:42:26;;;;;;;4.25;1.25;;;5.10;99.90;;;;;;5092988;28;20042;-86
2023/04/14 02:45:01;;;;;;;3.58;1.55;;;5.00;99.90;;;;;;5094723;28;20028;-86
2023/04/14 02:47:36;;;;;;;6.22;1.58;;;5.70;99.90;;;;;;5111384;28;20047;-86
2023/04/14 02:50:04;;;;;;;4.90;1.70;;;4.90;99.90;;;;;;5094632;28;20496;-86
2023/04/14 02:52:32;;;;;;;5.97;2.03;;;4.90;99.90;;;;;;5075165;28;20429;-86
2023/04/14 02:55:00;;;;;;;4.95;1.80;;;5.30;99.90;;;;;;5094188;28;20051;-86
2023/04/14 02:57:28;;;;;;;3.70;1.60;;;5.50;99.90;;;;;;5094236;28;20063;-86
2023/04/14 02:59:56;;;;;;;4.35;1.85;;;5.10;99.90;;;;;;5094449;28;20537;-86
2023/04/14 03:02:22;;;;;;;7.18;1.70;;;4.80;99.90;;;;;;5077005;28;20078;-86
2023/04/14 03:04:48;;;;;;;5.43;1.65;;;4.90;99.90;;;;;;5060725;28;20097;-86
2023/04/14 03:07:16;;;;;;;2.85;1.58;;;4.80;99.90;;;;;;5094076;28;20036;-86
2023/04/14 03:09:43;;;;;;;7.00;2.00;;;4.90;99.90;;;;;;5094138;28;20036;-86
2023/04/14 03:12:11;;;;;;;7.95;2.20;;;4.80;99.90;;;;;;5076962;28;20145;-86
2023/04/14 03:14:38;;;;;;;7.50;1.90;;;4.80;99.90;;;;;;5078785;28;20035;-85
2023/04/14 03:17:06;;;;;;;5.57;1.83;;;4.80;99.90;;;;;;5076814;28;20036;-85
2023/04/14 03:19:33;;;;;;;6.18;2.00;;;5.50;99.90;;;;;;5077222;28;20036;-85
2023/04/14 03:21:59;;;;;;;5.72;1.85;;;4.70;99.90;;;;;;5111406;28;20454;-85
2023/04/14 03:24:29;;;;;;;5.15;1.80;;;4.80;99.90;;;;;;5093202;28;20085;-85
2023/04/14 03:27:04;;;;;;;7.15;1.85;;;4.80;99.90;;;;;;5075568;28;20074;-85
2023/04/14 03:29:35;;;;;;;5.30;1.50;;;5.10;99.90;;;;;;5110255;28;20023;-85
2023/04/14 03:32:05;;;;;;;6.65;2.42;;;4.70;99.90;;;;;;5093769;28;20039;-84
2023/04/14 03:34:33;;;;;;;9.15;2.83;;;4.70;99.90;;;;;;5077777;28;20043;-85
2023/04/14 03:37:01;;;;;;;7.70;2.03;;;4.70;99.90;;;;;;5093511;28;20441;-85
2023/04/14 03:39:30;;;;;;;7.32;2.13;;;5.60;99.90;;;;;;5076984;28;20507;-85
2023/04/14 03:41:58;;;;;;;5.38;2.10;;;5.50;99.90;;;;;;5094270;28;20043;-85
2023/04/14 03:44:27;;;;;;;7.95;2.40;;;4.60;99.90;;;;;;5110021;28;20098;-85
2023/04/14 03:46:53;;;;;;;6.88;2.30;;;4.60;99.90;;;;;;5093126;28;20054;-85
2023/04/14 03:49:22;;;;;;;5.97;2.03;;;5.30;99.90;;;;;;5093587;28;20036;-85
2023/04/14 03:51:52;;;;;;;6.60;2.17;;;4.50;99.90;;;;;;5093489;28;20039;-85
2023/04/14 03:54:21;;;;;;;5.75;2.30;;;4.70;99.90;;;;;;5093165;28;20050;-85
2023/04/14 03:56:48;;;;;;;12.52;2.55;;;4.60;99.90;;;;;;5093119;28;20035;-85
2023/04/14 03:59:16;;;;;;;8.38;2.17;;;4.60;99.90;;;;;;5057462;28;20066;-85
2023/04/14 04:01:43;;;;;;;6.28;2.13;;;4.60;99.90;;;;;;5110249;28;20050;-85
2023/04/14 04:04:09;;;;;;;12.10;2.38;;;4.60;99.90;;;;;;5093191;28;20088;-85
2023/04/14 04:06:36;;;;;;;6.18;2.17;;;4.60;99.90;;;;;;5093366;28;20065;-85
2023/04/14 04:09:03;;;;;;;4.18;1.80;;;5.50;99.90;;;;;;5076615;28;20031;-85
2023/04/14 04:11:32;;;;;;;8.80;2.10;;;4.50;99.90;;;;;;5092801;28;20043;-85
2023/04/14 04:14:00;;;;;;;5.57;2.05;;;4.50;99.90;;;;;;5093741;28;20039;-84
2023/04/14 04:16:29;;;;;;;3.25;1.70;;;5.30;99.90;;;;;;5093837;28;20044;-84
2023/04/14 04:18:57;;;;;;;7.22;2.03;;;4.50;99.90;;;;;;5111643;28;20487;-83
2023/04/14 04:21:26;;;;;;;8.85;2.55;;;6.10;99.90;;;;;;5094498;28;20082;-85
2023/04/14 04:23:54;;;;;;;6.57;1.70;;;4.50;99.90;;;;;;5074833;28;20066;-83
2023/04/14 04:26:22;;;;;;;4.20;1.95;;;5.10;99.90;;;;;;5111029;28;20483;-80
2023/04/14 04:28:48;;;;;;;4.50;2.00;;;4.50;99.90;;;;;;5110216;28;20084;-81
2023/04/14 04:31:15;;;;;;;9.38;2.50;;;4.80;99.90;;;;;;5093458;28;20032;-80
2023/04/14 04:33:42;;;;;;;6.45;1.83;;;4.50;99.90;;;;;;5096788;28;20112;-80
2023/04/14 04:36:08;;;;;;;8.13;2.40;;;4.50;99.90;;;;;;5081225;28;20089;-80
2023/04/14 04:38:34;;;;;;;6.53;2.13;;;4.50;99.90;;;;;;5097488;28;20040;-80
2023/04/14 04:40:59;;;;;;;8.35;1.92;;;4.60;99.90;;;;;;5098026;28;20403;-81
2023/04/14 04:43:25;;;;;;;5.05;1.80;;;5.30;99.90;;;;;;5097112;28;20123;-80
2023/04/14 04:46:03;;;;;;;4.97;2.03;;;4.50;99.90;;;;;;5079358;28;20027;-81
2023/04/14 04:48:29;;;;;;;7.15;1.75;;;4.60;99.90;;;;;;5112038;28;20313;-80
2023/04/14 04:50:54;;;;;;;4.07;1.92;;;4.80;99.90;;;;;;5078787;28;20120;-80
2023/04/14 04:53:20;;;;;;;6.80;2.03;;;4.50;99.90;;;;;;5079083;28;20039;-81
2023/04/14 04:55:46;;;;;;;7.17;1.70;;;4.60;99.90;;;;;;5079132;28;20285;-81
2023/04/14 04:58:12;;;;;;;5.18;1.90;;;4.60;99.90;;;;;;5112441;28;20691;-80
2023/04/14 05:00:37;;;;;;;6.20;2.00;;;4.90;99.90;;;;;;5095958;28;20039;-81
2023/04/14 05:03:03;;;;;;;4.90;1.70;;;4.60;99.90;;;;;;5096507;28;20043;-81
2023/04/14 05:05:29;;;;;;;7.03;1.77;;;4.60;99.90;;;;;;5077913;28;20030;-81
2023/04/14 05:07:54;;;;;;;8.27;2.10;;;4.60;99.90;;;;;;5061235;28;20119;-80
2023/04/14 05:10:20;;;;;;;3.73;1.80;;;4.60;99.90;;;;;;5079212;28;20062;-81
2023/04/14 05:12:46;;;;;;;3.95;2.00;;;5.30;99.90;;;;;;5096460;28;20285;-81
2023/04/14 05:15:12;;;;;;;6.20;2.25;;;4.60;99.90;;;;;;5096463;28;20039;-80
2023/04/14 05:17:37;;;;;;;5.50;1.60;;;4.60;99.90;;;;;;5096400;28;20043;-80
2023/04/14 05:20:04;;;;;;;4.60;1.63;;;4.60;99.90;;;;;;5096254;28;20043;-81
2023/04/14 05:22:31;;;;;;;7.18;1.90;;;4.70;99.90;;;;;;5112884;28;20800;-81
2023/04/14 05:24:57;;;;;;;7.15;1.95;;;5.00;99.90;;;;;;5113182;28;20035;-81
2023/04/14 05:27:23;;;;;;;5.55;1.60;;;4.70;99.90;;;;;;5062778;28;20027;-81
2023/04/14 05:29:48;;;;;;;8.55;2.13;;;4.80;99.90;;;;;;5096803;28;20036;-82
2023/04/14 05:32:14;;;;;;;7.85;1.83;;;5.10;99.90;;;;;;5096642;28;20043;-82
2023/04/14 05:34:40;;;;;;;6.10;1.80;;;5.00;99.90;;;;;;5096061;28;20495;-82
2023/04/14 05:37:06;;;;;;;4.85;1.67;;;4.90;99.90;;;;;;5062745;28;20043;-82
2023/04/14 05:39:32;;;;;;;6.68;1.85;;;5.00;99.90;;;;;;5112861;28;20050;-82
2023/04/14 05:42:00;;;;;;;4.68;1.98;;;5.00;99.90;;;;;;5096229;28;20047;-82
2023/04/14 05:44:26;;;;;;;6.80;2.15;;;5.10;99.90;;;;;;5078475;28;20031;-82
2023/04/14 05:46:52;;;;;;;4.47;1.53;;;5.10;99.90;;;;;;5096236;28;20096;-82
2023/04/14 05:49:17;;;;;;;6.18;1.40;;;5.20;99.90;;;;;;5095546;28;21138;-82
2023/04/14 05:51:43;;;;;;;4.60;1.90;;;5.20;99.90;;;;;;5095793;28;20138;-82
2023/04/14 05:54:09;;;;;;;5.43;1.75;;;5.30;99.90;;;;;;5078963;28;20373;-82
2023/04/14 05:56:35;;;;;;;5.03;2.20;;;5.50;99.90;;;;;;5095428;28;20043;-82
2023/04/14 05:59:00;;;;;;;4.80;1.85;;;5.50;99.90;;;;;;5062153;28;20039;-82
2023/04/14 06:01:26;;;;;;;4.23;1.70;;;5.70;99.90;;;;;;5078647;28;20050;-82
2023/04/14 06:03:52;;;;;;;7.37;1.90;;;5.70;99.90;;;;;;5095874;28;20274;-82
2023/04/14 06:06:21;;;;;;;9.30;1.60;;;5.80;99.90;;;;;;5112657;28;20312;-82
2023/04/14 06:08:46;;;;;;;5.32;1.75;;;6.10;99.90;;;;;;5096269;28;20040;-82
2023/04/14 06:11:13;;;;;;;6.93;1.50;;;6.20;99.90;;;;;;5095880;28;20032;-82
2023/04/14 06:13:38;;;;;;;4.43;1.35;;;6.40;99.90;;;;;;5078317;28;20093;-82
2023/04/14 06:16:04;;;;;;;4.83;1.70;;;6.60;99.90;;;;;;5078983;28;20102;-82
2023/04/14 06:18:30;;;;;;;6.75;1.95;;;6.80;99.90;;;;;;5095876;28;20031;-82
2023/04/14 06:20:56;;;;;;;4.50;1.40;;;6.90;99.90;;;;;;5096174;28;20034;-82
2023/04/14 06:23:23;;;;;;;7.83;1.87;;;7.00;99.90;;;;;;5095283;28;20032;-82
2023/04/14 06:25:51;;;;;;;8.13;1.83;;;7.20;99.90;;;;;;5078551;28;20034;-82
2023/04/14 06:28:17;;;;;;;8.82;1.98;;;7.40;99.90;;;;;;5112221;28;20035;-82
2023/04/14 06:30:43;;;;;;;;;;;7.60;99.90;;;;;;5095891;28;20035;-82
2023/04/14 06:33:08;;;;;;;4.72;1.25;;;7.70;99.90;;;;;;5095504;28;19915;-82
2023/04/14 06:35:34;;;;;;;4.40;1.20;;;7.90;99.90;;;;;;5094851;28;20065;-82
2023/04/14 06:38:01;;;;;;;3.72;1.10;;;8.10;99.90;;;;;;5112315;28;20137;-82
2023/04/14 06:40:26;;;;;;;5.95;1.50;;;8.20;99.90;;;;;;5111590;28;20058;-82
2023/04/14 06:42:52;;;;;;;5.38;1.38;;;8.50;99.90;;;;;;5078024;28;20118;-82
2023/04/14 06:45:18;;;;;;;3.42;1.25;;;8.60;99.90;;;;;;5095634;28;20125;-82
2023/04/14 06:47:44;;;;;;;6.55;1.48;;;8.80;99.90;;;;;;5095121;28;20100;-82
2023/04/14 06:50:11;;;;;;;4.45;1.75;;;9.30;99.90;;;;;;5078954;28;20036;-82
2023/04/14 06:52:37;;;;;;;6.40;1.58;;;10.00;99.90;;;;;;5095766;28;20088;-82
2023/04/14 06:55:02;;;;;;;4.65;1.58;;;10.50;99.90;;;;;;5112103;28;20059;-83
2023/04/14 06:57:28;;;;;;;2.80;1.05;;;11.00;99.90;;;;;;5095178;28;20043;-83
2023/04/14 06:59:55;;;;;;;3.45;1.20;;;11.40;99.90;;;;;;5095167;28;20043;-82
2023/04/14 07:02:20;;;;;;;8.45;1.35;;;11.80;99.90;;;;;;5094792;28;20515;-82
2023/04/14 07:04:50;;;;;;;4.15;1.15;;;12.20;99.90;;;;;;5094572;28;20032;-82
2023/04/14 07:07:15;;;;;;;3.65;1.13;;;12.30;99.90;;;;;;5094452;28;20043;-82
2023/04/14 07:09:42;;;;;;;4.80;1.52;;;12.60;99.90;;;;;;5094121;28;20034;-82
2023/04/14 07:12:12;;;;;;;5.25;1.42;;;12.90;99.90;;;;;;5111755;28;20044;-82
2023/04/14 07:14:39;;;;;;;4.22;1.00;;;13.00;99.90;;;;;;5110718;28;20045;-82
2023/04/14 07:17:05;;;;;;;;;;;13.30;99.90;;;;;;5094676;28;20036;-82
2023/04/14 07:19:34;;;;;;;5.30;1.25;;;13.50;99.90;;;;;;5094331;28;19967;-82
2023/04/14 07:22:00;;;;;;;3.92;1.10;;;13.50;99.90;;;;;;5094231;28;20043;-82
2023/04/14 07:24:26;;;;;;;5.18;1.40;;;13.50;99.90;;;;;;5094372;28;20092;-82
2023/04/14 07:26:52;;;;;;;7.97;1.20;;;13.70;99.90;;;;;;5111131;28;20550;-82
2023/04/14 07:29:17;;;;;;;3.53;0.98;;;13.70;99.90;;;;;;5110821;28;20036;-80
2023/04/14 07:31:43;;;;;;;6.50;0.95;;;13.90;99.90;;;;;;5094076;28;20141;-80
2023/04/14 07:34:09;;;;;;;5.15;1.17;;;14.00;99.90;;;;;;5094239;28;20039;-81
2023/04/14 07:36:35;;;;;;;5.63;1.13;;;14.20;99.90;;;;;;5111353;28;20395;-83
2023/04/14 07:39:01;;;;;;;5.57;1.58;;;14.40;99.90;;;;;;5094653;28;20036;-83
2023/04/14 07:41:27;;;;;;;3.78;1.10;;;14.60;99.90;;;;;;5111239;28;20532;-80
2023/04/14 07:43:57;;;;;;;3.30;1.00;;;14.80;99.90;;;;;;5094200;28;20043;-83
2023/04/14 07:46:23;;;;;;;5.22;1.83;;;15.10;99.90;;;;;;5111002;28;20138;-83
2023/04/14 07:48:49;;;;;;;5.30;0.90;;;15.10;99.90;;;;;;5060386;28;20050;-84
2023/04/14 07:51:15;;;;;;;2.38;0.82;;;15.20;99.90;;;;;;5094373;28;20032;-83
2023/04/14 07:53:42;;;;;;;7.68;1.20;;;15.30;99.90;;;;;;5094337;28;20495;-83
2023/04/14 07:56:08;;;;;;;6.50;1.13;;;15.40;99.90;;;;;;5111463;28;20039;-84
2023/04/14 07:58:34;;;;;;;4.32;0.70;;;15.50;99.90;;;;;;5094850;28;20031;-80
2023/04/14 08:00:59;;;;;;;6.13;1.25;;;15.80;99.90;;;;;;5094567;28;20096;-81
2023/04/14 08:03:25;;;;;;;6.40;0.90;;;15.70;99.90;;;;;;5060172;28;20039;-81
2023/04/14 08:05:51;;;;;;;3.33;1.10;;;16.10;99.90;;;;;;5094090;28;20059;-81
2023/04/14 08:08:17;;;;;;;6.63;1.27;;;16.20;99.90;;;;;;5093312;28;20040;-81
2023/04/14 08:10:42;;;;;;;8.43;1.23;;;16.20;99.90;;;;;;5077576;28;20036;-81
2023/04/14 08:13:08;;;;;;;3.58;0.82;;;16.40;99.90;;;;;;5111502;28;20040;-81
2023/04/14 08:15:34;;;;;;;5.22;1.15;;;16.60;99.90;;;;;;5111119;28;20148;-81
2023/04/14 08:18:01;;;;;;;5.45;1.20;;;16.60;99.90;;;;;;5094190;28;20070;-81
2023/04/14 08:20:26;;;;;;;3.25;1.02;;;16.70;99.90;;;;;;5093940;28;20114;-82
2023/04/14 08:22:52;;;;;;;3.83;1.23;;;16.80;99.90;;;;;;5077306;28;20514;-82
2023/04/14 08:25:18;;;;;;;5.28;1.02;;;16.90;99.90;;;;;;5093924;28;20038;-79
2023/04/14 08:27:44;;;;;;;3.15;0.82;;;17.10;99.90;;;;;;5110443;28;20035;-80
2023/04/14 08:30:10;;;;;;;4.95;1.00;;;17.30;99.90;;;;;;5094096;28;20045;-82
2023/04/14 08:32:36;;;;;;;;;;;17.10;99.90;;;;;;5059832;28;20071;-83
2023/04/14 08:35:02;;;;;;;8.82;1.30;;;17.20;99.90;;;;;;5111040;28;19922;-82
2023/04/14 08:37:28;;;;;;;7.05;1.13;;;17.10;99.90;;;;;;5094078;28;20097;-82
2023/04/14 08:39:53;;;;;;;5.90;1.42;;;17.40;99.90;;;;;;5076906;28;20039;-82
2023/04/14 08:42:20;;;;;;;7.72;1.25;;;17.50;99.90;;;;;;5110978;28;20075;-82
2023/04/14 08:44:47;;;;;;;3.15;0.90;;;17.70;99.00;;;;;;5110798;28;20051;-82
2023/04/14 08:47:21;;;;;;;7.47;1.50;;;17.80;99.90;;;;;;5093834;28;20060;-82
2023/04/14 08:49:58;;;;;;;7.40;1.42;;;17.80;98.50;;;;;;5093624;28;20089;-82
2023/04/14 08:52:27;;;;;;;5.45;1.33;;;18.10;99.70;;;;;;5108664;28;20059;-82
2023/04/14 08:54:55;;;;;;;5.97;1.08;;;18.20;99.40;;;;;;5093979;28;20556;-82
2023/04/14 08:57:23;;;;;;;5.03;1.30;;;18.50;99.10;;;;;;5093997;28;20028;-82
2023/04/14 08:59:49;;;;;;;6.38;1.52;;;18.70;97.20;;;;;;5093717;28;20059;-81
2023/04/14 09:02:16;;;;;;;;;;;18.70;97.60;;;;;;5111278;28;20496;-81
2023/04/14 09:04:43;;;;;;;5.75;1.25;;;18.70;96.70;;;;;;5110511;28;19915;-80
2023/04/14 09:07:08;;;;;;;;;;;19.20;98.00;;;;;;5076520;28;20035;-81
2023/04/14 09:09:34;;;;;;;5.13;1.27;;;19.10;95.90;;;;;;5093779;28;19916;-81
2023/04/14 09:12:02;;;;;;;5.65;1.00;;;19.10;96.10;;;;;;5077332;28;20036;-81
2023/04/14 09:14:28;;;;;;;4.10;1.00;;;19.40;97.40;;;;;;5076278;28;20040;-81
2023/04/14 09:16:55;;;;;;;6.35;1.00;;;19.70;95.60;;;;;;5093292;28;20035;-81
2023/04/14 09:19:25;;;;;;;8.00;1.27;;;19.80;96.30;;;;;;5076591;28;20101;-81
2023/04/14 09:21:51;;;;;;;8.18;1.25;;;19.90;95.60;;;;;;5096775;28;20036;-81
2023/04/14 09:24:22;;;;;;;4.53;1.10;;;19.80;96.10;;;;;;5097532;28;20042;-80
2023/04/14 09:26:48;;;;;;;5.10;1.02;;;19.40;96.20;;;;;;5113980;28;20028;-81
2023/04/14 09:29:17;;;;;;;4.47;1.00;;;19.30;96.70;;;;;;5097548;28;20032;-81
2023/04/14 09:31:46;;;;;;;7.20;1.02;;;19.30;95.90;;;;;;5097096;28;20123;-80
2023/04/14 09:34:17;;;;;;;4.45;1.00;;;19.40;95.50;;;;;;5097190;28;20380;-80
2023/04/14 09:37:05;;;;;;;5.60;1.13;;;19.10;94.50;;;;;;5096445;28;20044;-80
2023/04/14 09:39:35;;;;;;;4.93;1.30;;;19.10;94.50;;;;;;5113511;28;20047;-80
2023/04/14 09:42:02;;;;;;;5.78;1.13;;;19.20;94.80;;;;;;5092288;28;20044;-80
2023/04/14 09:44:32;;;;;;;4.80;1.10;;;19.70;95.30;;;;;;5080395;28;20063;-82
2023/04/14 09:47:06;;;;;;;4.32;1.35;;;19.50;94.40;;;;;;5096291;28;20111;-80
2023/04/14 09:49:32;;;;;;;5.78;1.45;;;19.40;95.20;;;;;;5077935;28;20046;-80
2023/04/14 09:52:08;;;;;;;8.95;1.45;;;19.70;95.30;;;;;;5096055;28;20032;-81
2023/04/14 09:54:34;;;;;;;5.87;1.10;;;19.80;95.80;;;;;;5113137;28;20091;-79
2023/04/14 09:57:03;;;;;;;;;;;20.00;95.80;;;;;;5113050;28;20040;-79
2023/04/14 09:59:34;;;;;;;5.85;1.08;;;20.20;94.60;;;;;;5113243;28;20329;-80
2023/04/14 10:02:06;;;;;;;5.38;1.00;;;19.50;94.70;;;;;;5095223;28;20044;-79
2023/04/14 10:04:32;;;;;;;5.88;1.42;;;19.60;95.00;;;;;;5113116;28;20032;-80
2023/04/14 10:06:58;;;;;;;6.00;1.73;;;19.60;94.30;;;;;;5096183;28;20027;-80
2023/04/14 10:09:26;;;;;;;;;;;19.70;94.60;;;;;;5096324;28;20027;-85
2023/04/14 10:12:13;;;;;;;7.88;1.33;;;19.90;93.90;;;;;;5094838;28;19922;-85
2023/04/14 10:14:42;;;;;;;7.85;1.52;;;20.10;94.40;;;;;;5095846;28;20483;-85
2023/04/14 10:17:09;;;;;;;6.80;1.58;;;20.90;94.70;;;;;;5096275;28;20032;-86
2023/04/14 10:19:36;;;;;;;7.03;1.70;;;21.10;93.40;;;;;;5096018;28;20035;-85
2023/04/14 10:22:04;;;;;;;6.20;1.30;;;21.30;93.10;;;;;;5096494;28;20073;-85
2023/04/14 10:24:31;;;;;;;9.27;1.40;;;21.40;93.10;;;;;;5095864;28;20028;-85
2023/04/14 10:27:01;;;;;;;6.57;1.70;;;20.60;93.20;;;;;;5061864;28;20032;-86
2023/04/14 10:29:28;;;;;;;5.20;1.70;;;20.00;93.30;;;;;;5112886;28;20392;-86
2023/04/14 10:32:00;;;;;;;6.72;1.40;;;19.90;93.20;;;;;;5061183;28;20065;-86
2023/04/14 10:34:28;;;;;;;6.28;1.77;;;19.70;93.00;;;;;;5094606;28;20131;-86
2023/04/14 10:36:54;;;;;;;4.85;1.52;;;19.70;93.30;;;;;;5092510;28;20492;-86
2023/04/14 10:39:26;;;;;;;6.75;1.60;;;19.40;93.30;;;;;;5078290;28;20055;-86
2023/04/14 10:41:54;;;;;;;5.97;1.60;;;19.90;94.00;;;;;;5111987;28;20036;-86
2023/04/14 10:44:24;;;;;;;6.60;1.48;;;20.50;93.20;;;;;;5096047;28;20048;-86
2023/04/14 10:46:51;;;;;;;8.23;1.67;;;21.20;92.90;;;;;;5095355;28;20397;-84
2023/04/14 10:49:17;;;;;;;7.60;1.55;;;21.60;91.60;;;;;;5078372;28;20032;-85
2023/04/14 10:51:45;;;;;;;6.80;1.60;;;21.20;91.50;;;;;;5079564;28;20086;-86
2023/04/14 10:54:18;;;;;;;5.53;1.63;;;21.40;91.30;;;;;;5078636;28;20043;-88
2023/04/14 10:57:13;;;;;;;5.32;1.55;;;20.70;92.10;;;;;;5095056;28;20043;-87
2023/04/14 10:59:44;;;;;;;4.72;1.35;;;20.20;92.20;;;;;;5094669;28;20383;-87
2023/04/14 11:02:30;;;;;;;3.83;1.10;;;19.60;91.80;;;;;;5111846;28;20522;-86
2023/04/14 11:05:04;;;;;;;4.95;1.10;;;19.60;92.30;;;;;;5092670;28;20122;-82
2023/04/14 11:07:35;;;;;;;8.52;1.45;;;19.30;93.10;;;;;;5111738;28;20027;-80
2023/04/14 11:10:23;;;;;;;4.03;1.20;;;19.00;93.10;;;;;;5109786;28;20034;-81
2023/04/14 11:13:04;;;;;;;7.18;1.48;;;19.30;92.70;;;;;;5110621;28;20036;-78
2023/04/14 11:15:56;;;;;;;4.32;0.90;;;19.90;92.30;;;;;;5112825;28;20039;-80
2023/04/14 11:18:28;;;;;;;6.95;1.27;;;20.40;92.10;;;;;;5092880;28;20055;-80
2023/04/14 11:21:04;;;;;;;3.88;1.30;;;20.10;91.60;;;;;;5111657;28;20173;-80
2023/04/14 11:23:35;;;;;;;4.03;1.05;;;20.30;91.70;;;;;;5109969;28;20047;-80
2023/04/14 11:26:03;;;;;;;6.30;1.30;;;20.50;91.60;;;;;;5095072;28;20487;-80
2023/04/14 11:28:37;;;;;;;8.20;1.58;;;20.10;91.80;;;;;;5111856;28;20042;-80
2023/04/14 11:31:04;;;;;;;6.10;1.35;;;19.80;91.10;;;;;;5093387;28;20036;-80
2023/04/14 11:33:36;;;;;;;5.03;1.17;;;20.10;91.40;;;;;;5111318;28;20139;-80
2023/04/14 11:36:04;;;;;;;6.30;1.30;;;19.60;91.10;;;;;;5092334;28;20035;-80
2023/04/14 11:38:31;;;;;;;5.30;1.15;;;19.90;91.00;;;;;;5111908;28;20048;-81
2023/04/14 11:40:57;;;;;;;6.95;1.50;;;20.30;91.10;;;;;;5111315;28;20047;-80
2023/04/14 11:43:23;;;;;;;;;;;20.50;91.60;;;;;;5110809;28;20039;-80
2023/04/14 11:45:50;;;;;;;4.97;1.15;;;20.50;89.30;;;;;;5094703;28;19916;-80
2023/04/14 11:48:18;;;;;;;5.80;1.17;;;21.20;90.60;;;;;;5111867;28;20476;-80
2023/04/14 11:50:46;;;;;;;6.03;1.35;;;21.30;90.30;;;;;;5109952;28;20040;-80
2023/04/14 11:53:14;;;;;;;4.63;1.10;;;21.40;88.80;;;;;;5111818;28;20044;-80
2023/04/14 11:55:45;;;;;;;6.00;1.00;;;21.40;89.50;;;;;;5094843;28;20053;-80
2023/04/14 11:58:13;;;;;;;6.45;1.45;;;21.70;90.10;;;;;;5111917;28;20039;-80
2023/04/14 12:00:39;;;;;;;3.22;0.70;;;22.00;88.20;;;;;;5095027;28;20075;-81
2023/04/14 12:03:08;;;;;;;4.55;1.20;;;21.60;89.10;;;;;;5094142;28;20039;-81
2023/04/14 12:05:34;;;;;;;4.30;0.95;;;21.30;88.60;;;;;;5111260;28;20061;-80
2023/04/14 12:08:02;;;;;;;;;;;21.00;88.30;;;;;;5111926;28;20035;-82
2023/04/14 12:10:28;;;;;;;5.47;1.20;;;20.70;89.00;;;;;;5112150;28;20684;-83
2023/04/14 12:13:20;;;;;;;;;;;20.00;89.10;;;;;;5094899;28;21802;-82
2023/04/14 12:15:49;;;;;;;5.82;1.75;;;19.70;90.20;;;;;;5089921;28;20408;-83
2023/04/14 12:18:15;;;;;;;5.95;1.52;;;19.00;91.50;;;;;;5078143;28;20441;-83
2023/04/14 12:20:52;;;;;;;6.47;1.80;;;18.90;91.60;;;;;;5112467;28;20039;-84
2023/04/14 12:23:18;;;;;;;3.95;1.52;;;18.60;91.80;;;;;;5094907;28;20073;-83
2023/04/14 12:25:44;;;;;;;5.38;1.48;;;18.40;92.30;;;;;;5111994;28;20035;-83
2023/04/14 12:28:28;;;;;;;3.38;1.35;;;18.40;92.30;;;;;;5077570;28;20047;-83
2023/04/14 12:31:04;;;;;;;4.07;1.40;;;18.60;92.90;;;;;;5108909;28;20065;-83
2023/04/14 12:33:31;;;;;;;5.22;1.30;;;18.50;92.30;;;;;;5095206;28;20127;-83
2023/04/14 12:36:10;;;;;;;4.68;1.15;;;18.50;91.60;;;;;;5111928;28;20044;-83
2023/04/14 12:38:36;;;;;;;4.72;1.05;;;18.10;91.10;;;;;;5111391;28;20126;-83
2023/04/14 12:41:02;;;;;;;3.28;0.80;;;18.20;90.80;;;;;;5077182;28;20067;-83
2023/04/14 12:43:35;;;;;;;5.97;1.33;;;18.40;91.00;;;;;;5111159;28;20476;-83
2023/04/14 12:46:04;;;;;;;2.70;0.82;;;19.20;91.70;;;;;;5109419;28;20032;-82
2023/04/14 12:48:42;;;;;;;3.13;1.08;;;19.70;91.20;;;;;;5094802;28;20404;-83
2023/04/14 12:51:10;;;;;;;7.00;1.40;;;19.90;90.80;;;;;;5076788;28;20043;-82
2023/04/14 12:53:36;;;;;;;4.13;1.17;;;19.60;90.50;;;;;;5112827;28;20043;-83
2023/04/14 12:56:18;;;;;;;4.88;1.10;;;19.60;90.60;;;;;;5098529;28;20031;-83
2023/04/14 12:58:48;;;;;;;6.22;1.13;;;19.90;90.70;;;;;;5097798;28;20478;-83
2023/04/14 13:01:15;;;;;;;4.10;1.05;;;19.90;90.10;;;;;;5115506;28;20080;-84